sensor_id;sensor_type;location;lat;lon;timestamp;pressure;altitude;pressure_sealevel;temperature;humidity
10466;BME280;5280;42.600;23.556;2022-07-01T00:01:36;93413.88;;;22.35;54.68
10466;BME280;5280;42.600;23.556;2022-07-01T00:04:04;93419.28;;;22.35;55.43
10466;BME280;5280;42.600;23.556;2022-07-01T00:06:32;93411.13;;;22.28;55.39
10466;BME280;5280;42.600;23.556;2022-07-01T00:09:00;93400.03;;;22.16;56.45
10466;BME280;5280;42.600;23.556;2022-07-01T00:11:27;93391.69;;;22.11;54.95
10466;BME280;5280;42.600;23.556;2022-07-01T00:13:55;93386.06;;;22.06;55.59
10466;BME280;5280;42.600;23.556;2022-07-01T00:16:23;93403.47;;;22.10;56.07
10466;BME280;5280;42.600;23.556;2022-07-01T00:18:50;93400.03;;;22.16;55.70
10466;BME280;5280;42.600;23.556;2022-07-01T00:21:17;93412.44;;;22.17;55.79
10466;BME280;5280;42.600;23.556;2022-07-01T00:23:44;93414.03;;;22.12;55.35
10466;BME280;5280;42.600;23.556;2022-07-01T00:26:11;93399.88;;;22.03;54.39
10466;BME280;5280;42.600;23.556;2022-07-01T00:28:38;93397.06;;;22.11;54.74
10466;BME280;5280;42.600;23.556;2022-07-01T00:31:06;93410.81;;;22.16;54.19
10466;BME280;5280;42.600;23.556;2022-07-01T00:33:33;93354.50;;;21.85;54.18
10466;BME280;5280;42.600;23.556;2022-07-01T00:36:00;93398.09;;;22.10;53.05
10466;BME280;5280;42.600;23.556;2022-07-01T00:38:27;93413.69;;;22.15;53.81
10466;BME280;5280;42.600;23.556;2022-07-01T00:40:55;93403.47;;;22.10;53.45
10466;BME280;5280;42.600;23.556;2022-07-01T00:43:23;93426.16;;;22.22;52.33
10466;BME280;5280;42.600;23.556;2022-07-01T00:45:51;93399.88;;;22.03;52.00
10466;BME280;5280;42.600;23.556;2022-07-01T00:48:21;93435.81;;;22.31;56.53
10466;BME280;5280;42.600;23.556;2022-07-01T00:50:49;93450.31;;;22.30;56.80
10466;BME280;5280;42.600;23.556;2022-07-01T00:53:16;93449.66;;;22.28;57.39
10466;BME280;5280;42.600;23.556;2022-07-01T00:55:43;93389.75;;;21.90;57.20
10466;BME280;5280;42.600;23.556;2022-07-01T00:58:10;93447.34;;;22.25;57.75
10466;BME280;5280;42.600;23.556;2022-07-01T01:00:38;93455.16;;;22.20;58.56
10466;BME280;5280;42.600;23.556;2022-07-01T01:03:06;93448.50;;;22.16;58.33
10466;BME280;5280;42.600;23.556;2022-07-01T01:05:48;93439.41;;;22.03;58.96
10466;BME280;5280;42.600;23.556;2022-07-01T01:08:16;93448.72;;;22.00;58.43
10466;BME280;5280;42.600;23.556;2022-07-01T01:10:45;93455.50;;;21.96;59.50
10466;BME280;5280;42.600;23.556;2022-07-01T01:13:13;93466.31;;;21.88;59.25
10466;BME280;5280;42.600;23.556;2022-07-01T01:15:41;93419.50;;;21.53;59.06
10466;BME280;5280;42.600;23.556;2022-07-01T01:18:08;93445.19;;;21.56;59.71
10466;BME280;5280;42.600;23.556;2022-07-01T01:20:37;93455.56;;;21.59;61.24
10466;BME280;5280;42.600;23.556;2022-07-01T01:23:05;93434.22;;;21.42;61.58
10466;BME280;5280;42.600;23.556;2022-07-01T01:25:34;93445.09;;;21.49;62.70
10466;BME280;5280;42.600;23.556;2022-07-01T01:28:01;93427.94;;;21.35;62.83
10466;BME280;5280;42.600;23.556;2022-07-01T01:30:29;93421.28;;;21.31;63.66
10466;BME280;5280;42.600;23.556;2022-07-01T01:32:56;93406.22;;;21.22;63.72
10466;BME280;5280;42.600;23.556;2022-07-01T01:35:24;93426.38;;;21.26;63.91
10466;BME280;5280;42.600;23.556;2022-07-01T01:37:53;93432.75;;;21.25;64.06
10466;BME280;5280;42.600;23.556;2022-07-01T01:40:20;93423.97;;;21.17;62.52
10466;BME280;5280;42.600;23.556;2022-07-01T01:42:47;93436.72;;;21.15;62.75
10466;BME280;5280;42.600;23.556;2022-07-01T01:45:14;93374.88;;;20.62;62.00
10466;BME280;5280;42.600;23.556;2022-07-01T01:47:41;93430.19;;;20.94;63.00
10466;BME280;5280;42.600;23.556;2022-07-01T01:50:11;93446.41;;;21.01;64.27
10466;BME280;5280;42.600;23.556;2022-07-01T01:52:39;93435.19;;;20.97;64.33
10466;BME280;5280;42.600;23.556;2022-07-01T01:55:11;93443.78;;;20.93;65.13
10466;BME280;5280;42.600;23.556;2022-07-01T01:57:39;93449.81;;;20.95;65.51
10466;BME280;5280;42.600;23.556;2022-07-01T02:00:07;93453.69;;;20.92;64.90
10466;BME280;5280;42.600;23.556;2022-07-01T02:02:34;93414.25;;;20.55;65.20
10466;BME280;5280;42.600;23.556;2022-07-01T02:05:02;93448.41;;;20.84;65.11
10466;BME280;5280;42.600;23.556;2022-07-01T02:07:29;93451.94;;;20.85;64.90
10466;BME280;5280;42.600;23.556;2022-07-01T02:09:56;93460.63;;;20.72;66.29
10466;BME280;5280;42.600;23.556;2022-07-01T02:12:25;93463.94;;;20.74;65.95
10466;BME280;5280;42.600;23.556;2022-07-01T02:14:52;93466.88;;;20.65;65.73
10466;BME280;5280;42.600;23.556;2022-07-01T02:17:19;93471.94;;;20.59;65.74
10466;BME280;5280;42.600;23.556;2022-07-01T02:19:48;93410.22;;;20.06;66.87
10466;BME280;5280;42.600;23.556;2022-07-01T02:22:18;93479.41;;;20.49;67.16
10466;BME280;5280;42.600;23.556;2022-07-01T02:24:45;93474.50;;;20.53;67.36
10466;BME280;5280;42.600;23.556;2022-07-01T02:27:12;93402.69;;;20.01;67.90
10466;BME280;5280;42.600;23.556;2022-07-01T02:29:41;93391.44;;;20.06;68.28
10466;BME280;5280;42.600;23.556;2022-07-01T02:32:08;93471.72;;;20.46;67.83
10466;BME280;5280;42.600;23.556;2022-07-01T02:34:38;93474.75;;;20.43;68.34
10466;BME280;5280;42.600;23.556;2022-07-01T02:37:08;93458.06;;;20.25;67.96
10466;BME280;5280;42.600;23.556;2022-07-01T02:39:35;93480.00;;;20.29;68.42
10466;BME280;5280;42.600;23.556;2022-07-01T02:42:06;93487.81;;;20.15;69.90
10466;BME280;5280;42.600;23.556;2022-07-01T02:44:55;93490.81;;;20.12;70.54
10466;BME280;5280;42.600;23.556;2022-07-01T02:47:31;93405.94;;;19.58;70.84
10466;BME280;5280;42.600;23.556;2022-07-01T02:49:59;93432.00;;;19.80;71.09
10466;BME280;5280;42.600;23.556;2022-07-01T02:52:26;93500.03;;;20.18;71.69
10466;BME280;5280;42.600;23.556;2022-07-01T02:55:00;93441.88;;;19.80;72.18
10466;BME280;5280;42.600;23.556;2022-07-01T02:57:27;93496.41;;;20.03;72.60
10466;BME280;5280;42.600;23.556;2022-07-01T02:59:59;93507.97;;;20.11;72.79
10466;BME280;5280;42.600;23.556;2022-07-01T03:02:26;93496.50;;;20.17;71.89
10466;BME280;5280;42.600;23.556;2022-07-01T03:04:57;93477.13;;;20.07;72.70
10466;BME280;5280;42.600;23.556;2022-07-01T03:07:25;93443.50;;;19.89;71.66
10466;BME280;5280;42.600;23.556;2022-07-01T03:09:52;93506.38;;;20.25;72.36
10466;BME280;5280;42.600;23.556;2022-07-01T03:12:19;93520.09;;;20.30;71.89
10466;BME280;5280;42.600;23.556;2022-07-01T03:14:58;93515.25;;;20.26;72.73
10466;BME280;5280;42.600;23.556;2022-07-01T03:17:28;93511.06;;;20.23;73.27
10466;BME280;5280;42.600;23.556;2022-07-01T03:19:56;93473.84;;;19.97;73.24
10466;BME280;5280;42.600;23.556;2022-07-01T03:22:25;93433.22;;;19.69;73.85
10466;BME280;5280;42.600;23.556;2022-07-01T03:24:53;93518.78;;;20.26;74.64
10466;BME280;5280;42.600;23.556;2022-07-01T03:27:22;93512.41;;;20.27;75.21
10466;BME280;5280;42.600;23.556;2022-07-01T03:29:49;93511.38;;;20.28;75.20
10466;BME280;5280;42.600;23.556;2022-07-01T03:32:18;93520.09;;;20.30;74.91
10466;BME280;5280;42.600;23.556;2022-07-01T03:34:47;93511.72;;;20.33;74.85
10466;BME280;5280;42.600;23.556;2022-07-01T03:37:15;93497.47;;;20.25;75.38
10466;BME280;5280;42.600;23.556;2022-07-01T03:39:43;93493.78;;;20.26;75.39
10466;BME280;5280;42.600;23.556;2022-07-01T03:42:12;93510.00;;;20.40;76.01
10466;BME280;5280;42.600;23.556;2022-07-01T03:44:39;93516.84;;;20.43;76.62
10466;BME280;5280;42.600;23.556;2022-07-01T03:47:07;93522.72;;;20.46;76.05
10466;BME280;5280;42.600;23.556;2022-07-01T03:49:35;93417.75;;;19.80;76.41
10466;BME280;5280;42.600;23.556;2022-07-01T03:52:03;93519.00;;;20.47;77.12
10466;BME280;5280;42.600;23.556;2022-07-01T03:54:31;93533.47;;;20.46;77.88
10466;BME280;5280;42.600;23.556;2022-07-01T03:57:00;93532.25;;;20.49;77.99
10466;BME280;5280;42.600;23.556;2022-07-01T03:59:28;93489.84;;;20.44;78.05
10466;BME280;5280;42.600;23.556;2022-07-01T04:01:56;93517.19;;;20.71;77.27
10466;BME280;5280;42.600;23.556;2022-07-01T04:04:27;93490.03;;;20.66;77.74
10466;BME280;5280;42.600;23.556;2022-07-01T04:06:58;93524.91;;;20.96;78.00
10466;BME280;5280;42.600;23.556;2022-07-01T04:09:30;93444.09;;;20.60;78.14
10466;BME280;5280;42.600;23.556;2022-07-01T04:11:57;93455.44;;;20.85;76.64
10466;BME280;5280;42.600;23.556;2022-07-01T04:14:25;93545.34;;;21.58;75.40
10466;BME280;5280;42.600;23.556;2022-07-01T04:16:55;93470.13;;;21.50;71.62
10466;BME280;5280;42.600;23.556;2022-07-01T04:19:24;93436.91;;;21.72;70.56
10466;BME280;5280;42.600;23.556;2022-07-01T04:21:55;93489.25;;;22.49;68.48
10466;BME280;5280;42.600;23.556;2022-07-01T04:24:36;93488.72;;;22.75;68.76
10466;BME280;5280;42.600;23.556;2022-07-01T04:27:04;93487.31;;;23.00;66.01
10466;BME280;5280;42.600;23.556;2022-07-01T04:29:31;93488.84;;;23.09;64.36
10466;BME280;5280;42.600;23.556;2022-07-01T04:31:58;93529.84;;;23.47;63.76
10466;BME280;5280;42.600;23.556;2022-07-01T04:34:26;93461.47;;;23.12;63.47
10466;BME280;5280;42.600;23.556;2022-07-01T04:36:53;93456.94;;;23.13;63.78
10466;BME280;5280;42.600;23.556;2022-07-01T04:39:22;93518.34;;;23.60;64.37
10466;BME280;5280;42.600;23.556;2022-07-01T04:41:49;93544.63;;;23.79;62.33
10466;BME280;5280;42.600;23.556;2022-07-01T04:44:30;93536.38;;;23.87;62.14
10466;BME280;5280;42.600;23.556;2022-07-01T04:46:58;93539.31;;;23.92;63.54
10466;BME280;5280;42.600;23.556;2022-07-01T04:49:28;93544.56;;;24.00;63.03
10466;BME280;5280;42.600;23.556;2022-07-01T04:51:57;93459.09;;;23.52;62.48
10466;BME280;5280;42.600;23.556;2022-07-01T04:54:26;93535.28;;;24.10;62.39
10466;BME280;5280;42.600;23.556;2022-07-01T04:56:54;93503.13;;;23.87;62.69
10466;BME280;5280;42.600;23.556;2022-07-01T04:59:21;93548.63;;;24.18;62.68
10466;BME280;5280;42.600;23.556;2022-07-01T05:01:48;93526.13;;;24.11;63.61
10466;BME280;5280;42.600;23.556;2022-07-01T05:04:16;93487.34;;;23.84;62.99
10466;BME280;5280;42.600;23.556;2022-07-01T05:06:44;93534.84;;;24.13;63.60
10466;BME280;5280;42.600;23.556;2022-07-01T05:09:14;93549.59;;;24.10;62.52
10466;BME280;5280;42.600;23.556;2022-07-01T05:11:43;93546.44;;;24.07;62.45
10466;BME280;5280;42.600;23.556;2022-07-01T05:14:11;93505.66;;;23.88;62.64
10466;BME280;5280;42.600;23.556;2022-07-01T05:16:38;93514.16;;;23.85;62.71
10466;BME280;5280;42.600;23.556;2022-07-01T05:19:05;93535.81;;;23.98;62.20
10466;BME280;5280;42.600;23.556;2022-07-01T05:21:50;93530.47;;;24.12;62.81
10466;BME280;5280;42.600;23.556;2022-07-01T05:24:25;93501.75;;;23.97;63.74
10466;BME280;5280;42.600;23.556;2022-07-01T05:26:56;93512.88;;;24.16;63.80
10466;BME280;5280;42.600;23.556;2022-07-01T05:29:23;93544.78;;;24.33;62.74
10466;BME280;5280;42.600;23.556;2022-07-01T05:31:53;93521.66;;;24.24;62.66
10466;BME280;5280;42.600;23.556;2022-07-01T05:34:21;93505.47;;;24.24;63.00
10466;BME280;5280;42.600;23.556;2022-07-01T05:36:48;93490.88;;;24.19;63.25
10466;BME280;5280;42.600;23.556;2022-07-01T05:39:16;93503.00;;;24.36;62.99
10466;BME280;5280;42.600;23.556;2022-07-01T05:41:44;93495.53;;;24.38;62.78
10466;BME280;5280;42.600;23.556;2022-07-01T05:44:14;93533.06;;;24.67;62.07
10466;BME280;5280;42.600;23.556;2022-07-01T05:46:41;93517.88;;;24.60;61.17
10466;BME280;5280;42.600;23.556;2022-07-01T05:49:08;93544.31;;;24.77;61.50
10466;BME280;5280;42.600;23.556;2022-07-01T05:51:39;93468.47;;;24.31;60.42
10466;BME280;5280;42.600;23.556;2022-07-01T05:54:09;93494.75;;;24.51;61.26
10466;BME280;5280;42.600;23.556;2022-07-01T05:56:37;93555.84;;;24.93;61.78
10466;BME280;5280;42.600;23.556;2022-07-01T05:59:04;93562.13;;;25.00;61.34
10466;BME280;5280;42.600;23.556;2022-07-01T06:01:33;93479.34;;;24.51;60.34
10466;BME280;5280;42.600;23.556;2022-07-01T06:04:03;93569.63;;;25.04;60.87
10466;BME280;5280;42.600;23.556;2022-07-01T06:06:31;93541.69;;;24.97;61.83
10466;BME280;5280;42.600;23.556;2022-07-01T06:09:00;93493.16;;;24.76;60.24
10466;BME280;5280;42.600;23.556;2022-07-01T06:11:28;93568.63;;;25.32;60.01
10466;BME280;5280;42.600;23.556;2022-07-01T06:14:00;93571.53;;;25.30;59.58
10466;BME280;5280;42.600;23.556;2022-07-01T06:16:27;93496.13;;;24.88;60.18
10466;BME280;5280;42.600;23.556;2022-07-01T06:18:58;93556.94;;;25.31;60.03
10466;BME280;5280;42.600;23.556;2022-07-01T06:21:28;93572.38;;;25.44;60.08
10466;BME280;5280;42.600;23.556;2022-07-01T06:23:58;93532.81;;;25.29;59.87
10466;BME280;5280;42.600;23.556;2022-07-01T06:26:26;93568.66;;;25.71;60.37
10466;BME280;5280;42.600;23.556;2022-07-01T06:28:53;93564.53;;;25.68;58.38
10466;BME280;5280;42.600;23.556;2022-07-01T06:31:25;93521.81;;;25.57;58.17
10466;BME280;5280;42.600;23.556;2022-07-01T06:33:57;93490.34;;;25.43;58.80
10466;BME280;5280;42.600;23.556;2022-07-01T06:36:24;93519.94;;;25.78;59.83
10466;BME280;5280;42.600;23.556;2022-07-01T06:38:52;93559.91;;;26.08;58.28
10466;BME280;5280;42.600;23.556;2022-07-01T06:41:19;93529.69;;;26.05;58.10
10466;BME280;5280;42.600;23.556;2022-07-01T06:43:57;93548.63;;;26.31;59.08
10466;BME280;5280;42.600;23.556;2022-07-01T06:46:33;93561.97;;;26.39;56.87
10466;BME280;5280;42.600;23.556;2022-07-01T06:49:02;93542.94;;;26.46;57.11
10466;BME280;5280;42.600;23.556;2022-07-01T06:51:31;93555.84;;;26.57;56.04
10466;BME280;5280;42.600;23.556;2022-07-01T06:54:07;93485.03;;;26.21;56.31
10466;BME280;5280;42.600;23.556;2022-07-01T06:56:45;93556.81;;;26.76;53.94
10466;BME280;5280;42.600;23.556;2022-07-01T06:59:15;93540.34;;;26.71;52.96
10466;BME280;5280;42.600;23.556;2022-07-01T07:01:43;93568.91;;;26.80;52.43
10466;BME280;5280;42.600;23.556;2022-07-01T07:04:21;93565.97;;;26.81;51.91
10466;BME280;5280;42.600;23.556;2022-07-01T07:06:49;93567.84;;;26.81;53.63
10466;BME280;5280;42.600;23.556;2022-07-01T07:09:18;93539.31;;;26.72;53.00
10466;BME280;5280;42.600;23.556;2022-07-01T07:11:46;93551.75;;;26.99;51.41
10466;BME280;5280;42.600;23.556;2022-07-01T07:14:14;93494.88;;;26.73;52.12
10466;BME280;5280;42.600;23.556;2022-07-01T07:17:10;93561.66;;;27.18;53.62
10466;BME280;5280;42.600;23.556;2022-07-01T07:19:43;93554.91;;;27.27;52.08
10466;BME280;5280;42.600;23.556;2022-07-01T07:22:10;93522.25;;;27.09;52.62
10466;BME280;5280;42.600;23.556;2022-07-01T07:24:40;93556.66;;;27.47;52.39
10466;BME280;5280;42.600;23.556;2022-07-01T07:27:11;93556.38;;;27.61;54.58
10466;BME280;5280;42.600;23.556;2022-07-01T07:29:40;93526.41;;;27.50;53.60
10466;BME280;5280;42.600;23.556;2022-07-01T07:32:07;93552.91;;;27.79;53.23
10466;BME280;5280;42.600;23.556;2022-07-01T07:34:35;93552.25;;;27.83;51.92
10466;BME280;5280;42.600;23.556;2022-07-01T07:37:05;93528.66;;;27.77;52.29
10466;BME280;5280;42.600;23.556;2022-07-01T07:39:34;93558.50;;;28.09;52.20
10466;BME280;5280;42.600;23.556;2022-07-01T07:42:05;93528.28;;;27.99;54.39
10466;BME280;5280;42.600;23.556;2022-07-01T07:44:32;93558.38;;;28.22;52.10
10466;BME280;5280;42.600;23.556;2022-07-01T07:47:00;93509.00;;;28.00;51.74
10466;BME280;5280;42.600;23.556;2022-07-01T07:49:28;93495.00;;;28.03;51.74
10466;BME280;5280;42.600;23.556;2022-07-01T07:51:56;93558.97;;;28.49;50.41
10466;BME280;5280;42.600;23.556;2022-07-01T07:54:28;93537.25;;;28.42;51.11
10466;BME280;5280;42.600;23.556;2022-07-01T07:56:55;93553.28;;;28.68;52.04
10466;BME280;5280;42.600;23.556;2022-07-01T07:59:23;93538.09;;;28.61;49.93
10466;BME280;5280;42.600;23.556;2022-07-01T08:01:50;93520.50;;;28.63;50.89
10466;BME280;5280;42.600;23.556;2022-07-01T08:04:18;93467.97;;;28.45;51.06
10466;BME280;5280;42.600;23.556;2022-07-01T08:06:46;93535.31;;;28.86;50.39
10466;BME280;5280;42.600;23.556;2022-07-01T08:09:15;93479.59;;;28.70;51.90
10466;BME280;5280;42.600;23.556;2022-07-01T08:11:44;93539.25;;;29.20;52.53
10466;BME280;5280;42.600;23.556;2022-07-01T08:14:12;93545.97;;;29.35;49.52
10466;BME280;5280;42.600;23.556;2022-07-01T08:16:44;93551.25;;;29.48;50.26
10466;BME280;5280;42.600;23.556;2022-07-01T08:19:12;93544.13;;;29.59;49.73
10466;BME280;5280;42.600;23.556;2022-07-01T08:21:41;93547.13;;;29.69;51.46
10466;BME280;5280;42.600;23.556;2022-07-01T08:24:09;93548.47;;;29.78;50.43
10466;BME280;5280;42.600;23.556;2022-07-01T08:26:36;93531.88;;;29.80;47.50
10466;BME280;5280;42.600;23.556;2022-07-01T08:29:05;93542.34;;;29.94;49.63
10466;BME280;5280;42.600;23.556;2022-07-01T08:31:39;93473.06;;;29.49;49.83
10466;BME280;5280;42.600;23.556;2022-07-01T08:34:09;93515.28;;;29.81;49.54
10466;BME280;5280;42.600;23.556;2022-07-01T08:36:36;93502.56;;;29.93;48.29
10466;BME280;5280;42.600;23.556;2022-07-01T08:39:05;93546.88;;;30.24;47.54
10466;BME280;5280;42.600;23.556;2022-07-01T08:41:36;93497.44;;;29.97;48.63
10466;BME280;5280;42.600;23.556;2022-07-01T08:44:05;93544.63;;;30.32;48.09
10466;BME280;5280;42.600;23.556;2022-07-01T08:46:33;93533.94;;;30.31;45.48
10466;BME280;5280;42.600;23.556;2022-07-01T08:49:01;93484.88;;;29.96;44.28
10466;BME280;5280;42.600;23.556;2022-07-01T08:51:28;93473.69;;;29.86;44.48
10466;BME280;5280;42.600;23.556;2022-07-01T08:53:58;93541.19;;;30.37;44.90
10466;BME280;5280;42.600;23.556;2022-07-01T08:56:27;93532.78;;;30.39;44.95
10466;BME280;5280;42.600;23.556;2022-07-01T08:59:26;93547.81;;;30.64;46.37
10466;BME280;5280;42.600;23.556;2022-07-01T09:01:55;93472.06;;;30.31;45.87
10466;BME280;5280;42.600;23.556;2022-07-01T09:04:29;93533.09;;;30.77;44.73
10466;BME280;5280;42.600;23.556;2022-07-01T09:07:02;93507.47;;;30.78;44.92
10466;BME280;5280;42.600;23.556;2022-07-01T09:09:34;93483.31;;;30.58;41.44
10466;BME280;5280;42.600;23.556;2022-07-01T09:12:05;93494.19;;;30.70;42.82
10466;BME280;5280;42.600;23.556;2022-07-01T09:14:51;93544.31;;;31.04;43.83
10466;BME280;5280;42.600;23.556;2022-07-01T09:17:23;93535.44;;;31.08;42.61
10466;BME280;5280;42.600;23.556;2022-07-01T09:19:53;93506.84;;;30.88;41.58
10466;BME280;5280;42.600;23.556;2022-07-01T09:22:20;93505.38;;;30.97;40.48
10466;BME280;5280;42.600;23.556;2022-07-01T09:24:47;93507.38;;;31.01;40.53
10466;BME280;5280;42.600;23.556;2022-07-01T09:27:18;93485.44;;;30.96;43.56
10466;BME280;5280;42.600;23.556;2022-07-01T09:29:51;93479.28;;;30.89;41.04
10466;BME280;5280;42.600;23.556;2022-07-01T09:32:20;93522.97;;;31.29;41.70
10466;BME280;5280;42.600;23.556;2022-07-01T09:34:49;93544.88;;;31.46;38.85
10466;BME280;5280;42.600;23.556;2022-07-01T09:37:31;93535.22;;;31.55;39.43
10466;BME280;5280;42.600;23.556;2022-07-01T09:40:01;93476.22;;;31.26;40.60
10466;BME280;5280;42.600;23.556;2022-07-01T09:42:30;93535.34;;;31.60;37.47
10466;BME280;5280;42.600;23.556;2022-07-01T09:45:01;93468.53;;;31.39;39.30
10466;BME280;5280;42.600;23.556;2022-07-01T09:47:33;93524.91;;;31.74;38.80
10466;BME280;5280;42.600;23.556;2022-07-01T09:50:01;93458.19;;;31.41;42.65
10466;BME280;5280;42.600;23.556;2022-07-01T09:52:30;93531.38;;;31.84;40.34
10466;BME280;5280;42.600;23.556;2022-07-01T09:55:00;93513.66;;;31.87;38.72
10466;BME280;5280;42.600;23.556;2022-07-01T09:57:28;93514.91;;;31.96;39.38
10466;BME280;5280;42.600;23.556;2022-07-01T09:59:57;93472.06;;;31.85;38.12
10466;BME280;5280;42.600;23.556;2022-07-01T10:02:28;93528.94;;;32.16;37.74
10466;BME280;5280;42.600;23.556;2022-07-01T10:05:00;93516.19;;;32.22;38.27
10466;BME280;5280;42.600;23.556;2022-07-01T10:07:40;93444.97;;;31.83;38.01
10466;BME280;5280;42.600;23.556;2022-07-01T10:10:30;93519.91;;;32.32;38.22
10466;BME280;5280;42.600;23.556;2022-07-01T10:13:00;93511.53;;;32.22;34.73
10466;BME280;5280;42.600;23.556;2022-07-01T10:15:30;93514.34;;;32.27;35.25
10466;BME280;5280;42.600;23.556;2022-07-01T10:17:59;93470.84;;;31.92;36.31
10466;BME280;5280;42.600;23.556;2022-07-01T10:20:33;93486.50;;;32.14;35.86
10466;BME280;5280;42.600;23.556;2022-07-01T10:23:04;93499.25;;;32.25;36.53
10466;BME280;5280;42.600;23.556;2022-07-01T10:25:51;93500.53;;;32.17;36.70
10466;BME280;5280;42.600;23.556;2022-07-01T10:28:23;93500.59;;;32.22;37.86
10466;BME280;5280;42.600;23.556;2022-07-01T10:30:57;93472.97;;;32.07;35.71
10466;BME280;5280;42.600;23.556;2022-07-01T10:33:35;93477.53;;;32.18;35.46
10466;BME280;5280;42.600;23.556;2022-07-01T10:36:08;93485.66;;;32.13;34.95
10466;BME280;5280;42.600;23.556;2022-07-01T10:41:46;93397.66;;;31.49;36.58
10466;BME280;5280;42.600;23.556;2022-07-01T10:44:27;93475.56;;;31.97;36.56
10466;BME280;5280;42.600;23.556;2022-07-01T10:47:03;93484.81;;;31.96;36.35
10466;BME280;5280;42.600;23.556;2022-07-01T10:49:58;93474.41;;;31.93;34.40
10466;BME280;5280;42.600;23.556;2022-07-01T10:52:26;93470.00;;;31.92;35.19
10466;BME280;5280;42.600;23.556;2022-07-01T10:54:56;93399.00;;;31.47;36.37
10466;BME280;5280;42.600;23.556;2022-07-01T10:57:33;93409.41;;;31.50;34.79
10466;BME280;5280;42.600;23.556;2022-07-01T11:00:26;93475.28;;;31.98;32.42
10466;BME280;5280;42.600;23.556;2022-07-01T11:03:15;93448.97;;;31.76;33.55
10466;BME280;5280;42.600;23.556;2022-07-01T11:05:46;93407.44;;;31.45;34.79
10466;BME280;5280;42.600;23.556;2022-07-01T11:08:18;93484.44;;;31.87;33.40
10466;BME280;5280;42.600;23.556;2022-07-01T11:10:50;93482.00;;;31.91;36.35
10466;BME280;5280;42.600;23.556;2022-07-01T11:13:24;93444.47;;;31.70;35.08
10466;BME280;5280;42.600;23.556;2022-07-01T11:15:52;93485.56;;;31.91;34.39
10466;BME280;5280;42.600;23.556;2022-07-01T11:18:24;93482.34;;;31.94;35.05
10466;BME280;5280;42.600;23.556;2022-07-01T11:20:53;93465.19;;;31.99;34.49
10466;BME280;5280;42.600;23.556;2022-07-01T11:23:29;93469.50;;;31.95;34.15
10466;BME280;5280;42.600;23.556;2022-07-01T11:25:56;93464.44;;;32.03;35.72
10466;BME280;5280;42.600;23.556;2022-07-01T11:28:23;93448.84;;;32.04;33.57
10466;BME280;5280;42.600;23.556;2022-07-01T11:30:58;93453.09;;;31.95;36.30
10466;BME280;5280;42.600;23.556;2022-07-01T11:33:27;93387.56;;;31.50;38.18
10466;BME280;5280;42.600;23.556;2022-07-01T11:35:58;93435.44;;;31.86;36.05
10466;BME280;5280;42.600;23.556;2022-07-01T11:38:45;93444.81;;;31.90;35.67
10466;BME280;5280;42.600;23.556;2022-07-01T11:41:30;93451.03;;;32.02;35.10
10466;BME280;5280;42.600;23.556;2022-07-01T11:44:00;93455.97;;;32.05;37.38
10466;BME280;5280;42.600;23.556;2022-07-01T11:46:30;93459.31;;;32.07;35.56
10466;BME280;5280;42.600;23.556;2022-07-01T11:48:58;93451.66;;;32.09;36.71
10466;BME280;5280;42.600;23.556;2022-07-01T11:51:27;93456.69;;;32.12;37.57
10466;BME280;5280;42.600;23.556;2022-07-01T11:53:57;93428.56;;;32.00;36.71
10466;BME280;5280;42.600;23.556;2022-07-01T11:56:30;93413.50;;;31.81;36.71
10466;BME280;5280;42.600;23.556;2022-07-01T11:58:59;93452.53;;;31.93;38.23
10466;BME280;5280;42.600;23.556;2022-07-01T12:01:30;93443.09;;;31.67;36.89
10466;BME280;5280;42.600;23.556;2022-07-01T12:04:01;93384.00;;;31.16;36.30
10466;BME280;5280;42.600;23.556;2022-07-01T12:06:34;93399.22;;;31.29;34.80
10466;BME280;5280;42.600;23.556;2022-07-01T12:09:06;93434.25;;;31.48;37.17
10466;BME280;5280;42.600;23.556;2022-07-01T12:11:38;93438.56;;;31.44;38.15
10466;BME280;5280;42.600;23.556;2022-07-01T12:14:11;93437.06;;;31.53;38.86
10466;BME280;5280;42.600;23.556;2022-07-01T12:16:41;93390.63;;;31.20;38.28
10466;BME280;5280;42.600;23.556;2022-07-01T12:19:09;93390.53;;;31.15;38.33
10466;BME280;5280;42.600;23.556;2022-07-01T12:21:49;93405.59;;;31.17;39.10
10466;BME280;5280;42.600;23.556;2022-07-01T12:24:17;93369.00;;;31.02;39.52
10466;BME280;5280;42.600;23.556;2022-07-01T12:26:49;93370.28;;;30.99;39.69
10466;BME280;5280;42.600;23.556;2022-07-01T12:29:18;93435.69;;;31.51;38.25
10466;BME280;5280;42.600;23.556;2022-07-01T12:31:58;93391.03;;;31.29;39.93
10466;BME280;5280;42.600;23.556;2022-07-01T12:34:40;93437.28;;;31.63;39.94
10466;BME280;5280;42.600;23.556;2022-07-01T12:37:16;93409.19;;;31.51;38.45
10466;BME280;5280;42.600;23.556;2022-07-01T12:39:45;93375.16;;;31.42;38.49
10466;BME280;5280;42.600;23.556;2022-07-01T12:42:21;93442.59;;;31.87;38.45
10466;BME280;5280;42.600;23.556;2022-07-01T12:44:49;93432.63;;;31.81;37.34
10466;BME280;5280;42.600;23.556;2022-07-01T12:47:19;93435.28;;;31.76;37.05
10466;BME280;5280;42.600;23.556;2022-07-01T12:49:46;93436.78;;;31.67;39.42
10466;BME280;5280;42.600;23.556;2022-07-01T12:52:28;93441.94;;;31.63;39.79
10466;BME280;5280;42.600;23.556;2022-07-01T12:54:56;93401.72;;;31.47;41.97
10466;BME280;5280;42.600;23.556;2022-07-01T12:57:31;93425.69;;;31.56;41.49
10466;BME280;5280;42.600;23.556;2022-07-01T12:59:59;93433.09;;;31.44;42.08
10466;BME280;5280;42.600;23.556;2022-07-01T13:02:26;93437.22;;;31.30;41.60
10466;BME280;5280;42.600;23.556;2022-07-01T13:04:53;93375.66;;;30.66;41.98
10466;BME280;5280;42.600;23.556;2022-07-01T13:07:21;93346.69;;;30.48;42.56
10466;BME280;5280;42.600;23.556;2022-07-01T13:09:49;93429.41;;;31.05;45.27
10466;BME280;5280;42.600;23.556;2022-07-01T13:12:17;93422.06;;;30.94;43.34
10466;BME280;5280;42.600;23.556;2022-07-01T13:14:44;93435.47;;;30.96;44.78
10466;BME280;5280;42.600;23.556;2022-07-01T13:17:11;93404.50;;;30.90;44.48
10466;BME280;5280;42.600;23.556;2022-07-01T13:19:38;93410.66;;;30.97;47.36